Decoded Metar for LFRD (DINARD in FRANCE) (IATA:DNR) | Meteo·Mobile Aviation Weather
aviador You're here:

LFRD Decoded Metar

DINARD in FRANCE
Report Time2018-12-11 11:00:00
UTC Time2018-12-11 11:19:26
Flight Rules lifr LIFR
Wind150° at 06 kt
W.Decomp.*RWY 17: 5.7 kt HW 1.9 kt LCW
RWY 12: 5.1 kt HW 3.2 kt RCW
W.Rank150° ranks 29
Current wind is below 150° avg. (6.7)
Visibility8000 m
Phenomena:N/A
Clouds:Broken 002 Hf
Expected CloudBase > 400 ft AGL from Temp-Dew spread
Ceiling200 ft
Temp07°C (ISA -8)
Dew Point06°C (93% RH)
AAT3.9°C
QNH1024 hPa
Density Alt-968 ft
Elevation194 ft
Report Wrong Elevation
Raw Report
METAR LFRD 111100Z AUTO 15006KT 120V180 8000 3400 BKN002 07/06 Q1024
BECMG SCT030=

Extra information for LFRD:More info

Metar Taf Metar & Taf Last 4 Metars F.Rules Stats Wind Profile Meteogram Temp Stats Airport Information Weather charts Add Link Nearby VenuesMetar ALERT Operation Metar Decoded Social comments